createdAt,value
2024-04-18T00:03:30.009Z,100.00
2024-04-18T00:08:31.632Z,100.00
2024-04-18T00:13:53.228Z,100.00
2024-04-18T00:19:10.267Z,100.00
2024-04-18T00:24:11.948Z,100.00
2024-04-18T00:29:25.664Z,100.00
2024-04-18T00:34:43.356Z,100.00
2024-04-18T00:40:05.164Z,100.00
2024-04-18T00:45:13.035Z,100.00
2024-04-18T00:50:20.007Z,100.00
2024-04-18T00:55:21.934Z,100.00
2024-04-18T01:00:44.053Z,100.00
2024-04-18T01:06:04.304Z,100.00
2024-04-18T01:11:25.883Z,100.00
2024-04-18T01:16:27.512Z,100.00
2024-04-18T01:21:29.495Z,100.00
2024-04-18T01:26:31.121Z,100.00
2024-04-18T01:31:32.767Z,100.00
2024-04-18T01:36:34.415Z,100.00
2024-04-18T01:41:56.023Z,100.00
2024-04-18T01:47:16.479Z,100.00
2024-04-18T01:52:38.736Z,100.00
2024-04-18T01:57:41.025Z,100.00
2024-04-18T02:03:01.564Z,100.00
2024-04-18T02:08:15.847Z,100.00
2024-04-18T02:13:20.472Z,100.00
2024-04-18T02:18:22.166Z,100.00
2024-04-18T02:23:23.832Z,100.00
2024-04-18T02:28:25.420Z,100.00
2024-04-18T02:33:47.113Z,100.00
2024-04-18T02:38:51.300Z,100.00
2024-04-18T02:43:53.748Z,100.00
2024-04-18T02:48:55.523Z,100.00
2024-04-18T02:54:00.178Z,100.00
2024-04-18T02:59:01.816Z,100.00
2024-04-18T03:04:22.471Z,100.00
2024-04-18T03:09:24.160Z,100.00
2024-04-18T03:14:28.440Z,100.00
2024-04-18T03:19:40.464Z,100.00
2024-04-18T03:24:57.493Z,100.00
2024-04-18T03:30:02.213Z,100.00
2024-04-18T03:35:09.724Z,100.00
2024-04-18T03:40:14.289Z,100.00
2024-04-18T03:45:35.610Z,100.00
2024-04-18T03:50:55.962Z,100.00
2024-04-18T03:55:57.590Z,100.00
2024-04-18T04:00:59.346Z,100.00
2024-04-18T04:06:01.019Z,100.00
2024-04-18T04:11:02.704Z,100.00
2024-04-18T04:16:04.486Z,100.00
2024-04-18T04:21:12.676Z,100.00
2024-04-18T04:26:14.831Z,100.00
2024-04-18T04:31:16.462Z,100.00
2024-04-18T04:36:18.205Z,100.00
2024-04-18T04:41:19.854Z,100.00
2024-04-18T04:46:21.589Z,100.00
2024-04-18T04:51:23.227Z,100.00
2024-04-18T04:56:37.594Z,100.00
2024-04-18T05:01:54.203Z,100.00
2024-04-18T05:07:15.861Z,100.00
2024-04-18T05:12:17.558Z,100.00
2024-04-18T05:17:19.514Z,100.00
2024-04-18T05:22:41.136Z,100.00
2024-04-18T05:27:43.841Z,100.00
2024-04-18T05:33:05.528Z,100.00
2024-04-18T05:38:07.276Z,100.00
2024-04-18T05:43:08.884Z,100.00
2024-04-18T05:48:19.673Z,100.00
2024-04-18T05:53:21.375Z,100.00
2024-04-18T05:58:28.751Z,100.00
2024-04-18T06:03:30.453Z,100.00
2024-04-18T06:08:32.117Z,100.00
2024-04-18T06:13:33.801Z,100.00
2024-04-18T06:18:35.598Z,100.00
2024-04-18T06:23:37.232Z,100.00
2024-04-18T06:28:53.997Z,100.00
2024-04-18T06:34:13.351Z,100.00
2024-04-18T06:39:15.019Z,100.00
2024-04-18T06:44:16.683Z,100.00
2024-04-18T06:49:18.431Z,100.00
2024-04-18T06:54:20.118Z,100.00
2024-04-18T06:59:21.815Z,100.00
2024-04-18T07:04:23.633Z,100.00
2024-04-18T07:09:45.298Z,100.00
2024-04-18T07:14:54.624Z,100.00
2024-04-18T07:20:16.274Z,100.00
2024-04-18T07:25:37.886Z,100.00
2024-04-18T07:30:59.522Z,100.00
2024-04-18T07:36:01.283Z,100.00
2024-04-18T07:41:02.989Z,100.00
2024-04-18T07:46:04.683Z,100.00
2024-04-18T07:51:07.068Z,100.00
2024-04-18T07:56:09.290Z,100.00
2024-04-18T08:01:12.354Z,100.00
2024-04-18T08:06:17.521Z,100.00
2024-04-18T08:11:52.855Z,100.00
2024-04-18T08:16:42.751Z,100.00
2024-04-18T08:21:44.452Z,90.21
2024-04-18T08:26:46.179Z,93.18
2024-04-18T08:31:47.874Z,100.00
2024-04-18T08:36:49.534Z,99.65
2024-04-18T08:41:52.423Z,86.28
2024-04-18T08:46:54.104Z,92.79
2024-04-18T08:51:55.843Z,95.58
2024-04-18T08:56:58.058Z,92.35
2024-04-18T09:02:01.118Z,90.70
2024-04-18T09:07:02.800Z,92.44
2024-04-18T09:12:05.524Z,94.03
2024-04-18T09:17:12.468Z,94.99
2024-04-18T09:22:14.079Z,97.97
2024-04-18T09:27:16.310Z,95.76
2024-04-18T09:32:18.177Z,92.47
2024-04-18T09:37:21.565Z,86.37
2024-04-18T09:42:46.205Z,90.13
2024-04-18T09:47:48.392Z,82.35
2024-04-18T09:52:50.692Z,85.81
2024-04-18T09:57:52.469Z,80.41
2024-04-18T10:02:54.644Z,80.88
2024-04-18T10:07:57.787Z,79.95
2024-04-18T10:13:00.305Z,75.24
2024-04-18T10:18:12.605Z,74.26
2024-04-18T10:23:14.856Z,78.07
2024-04-18T10:28:25.784Z,79.93
2024-04-18T10:33:28.129Z,77.89
2024-04-18T10:38:30.121Z,79.29
2024-04-18T10:43:34.520Z,71.40
2024-04-18T10:48:36.583Z,62.01
2024-04-18T10:53:39.273Z,68.60
2024-04-18T10:58:40.999Z,73.63
2024-04-18T11:03:42.731Z,75.46
2024-04-18T11:08:44.439Z,73.10
2024-04-18T11:13:46.428Z,70.97
2024-04-18T11:18:48.515Z,67.91
2024-04-18T11:23:53.155Z,66.82
2024-04-18T11:28:56.791Z,67.37
2024-04-18T11:33:58.546Z,69.39
2024-04-18T11:39:01.364Z,72.30
2024-04-18T11:44:03.078Z,71.34
2024-04-18T11:49:04.898Z,71.30
2024-04-18T11:54:06.593Z,68.84
2024-04-18T11:59:11.263Z,66.09
2024-04-18T12:04:13.028Z,60.78
2024-04-18T12:09:14.778Z,63.53
2024-04-18T12:14:16.542Z,64.55
2024-04-18T12:19:30.151Z,62.08
2024-04-18T12:24:31.895Z,53.39
2024-04-18T12:29:42.650Z,50.06
2024-04-18T12:34:44.283Z,54.06
2024-04-18T12:39:46.640Z,52.73
2024-04-18T12:45:00.444Z,52.76
2024-04-18T12:50:02.361Z,50.16
2024-04-18T12:55:04.268Z,50.30
2024-04-18T13:00:06.339Z,49.36
2024-04-18T13:05:26.834Z,47.88
2024-04-18T13:10:38.509Z,48.25
2024-04-18T13:15:59.858Z,47.15
2024-04-18T13:21:04.079Z,44.39
2024-04-18T13:26:05.811Z,45.10
2024-04-18T13:31:07.528Z,50.13
2024-04-18T13:36:21.427Z,52.32
2024-04-18T13:41:31.987Z,52.43
2024-04-18T13:46:49.505Z,46.35
2024-04-18T13:52:09.618Z,49.98
2024-04-18T13:57:11.321Z,53.53
2024-04-18T14:02:15.991Z,53.72
2024-04-18T14:07:17.796Z,54.52
2024-04-18T14:12:21.448Z,48.99
2024-04-18T14:17:31.428Z,49.14
2024-04-18T14:22:39.009Z,53.73
2024-04-18T14:27:40.742Z,56.41
2024-04-18T14:33:02.596Z,60.03
2024-04-18T14:38:04.510Z,62.91
2024-04-18T14:43:06.150Z,60.43
2024-04-18T14:48:08.731Z,57.79
2024-04-18T14:53:19.601Z,51.64
2024-04-18T14:58:42.187Z,47.40
2024-04-18T15:03:55.890Z,47.01
2024-04-18T15:08:57.637Z,47.97
2024-04-18T15:13:59.293Z,51.93
2024-04-18T15:19:00.964Z,55.80
2024-04-18T15:24:22.893Z,61.13
2024-04-18T15:29:36.453Z,61.23
2024-04-18T15:34:56.208Z,62.12
2024-04-18T15:40:09.982Z,63.04
2024-04-18T15:45:11.781Z,59.18
2024-04-18T15:50:19.506Z,60.08
2024-04-18T15:55:22.484Z,61.98
2024-04-18T16:00:24.772Z,62.18
2024-04-18T16:05:26.467Z,60.14
2024-04-18T16:10:43.689Z,61.75
2024-04-18T16:15:59.252Z,60.03
2024-04-18T16:21:11.180Z,59.60
2024-04-18T16:26:15.922Z,60.69
2024-04-18T16:31:17.575Z,59.34
2024-04-18T16:36:27.993Z,60.87
2024-04-18T16:41:42.961Z,61.53
2024-04-18T16:46:44.691Z,62.46
2024-04-18T16:51:46.356Z,63.46
2024-04-18T16:56:58.294Z,64.33
2024-04-18T17:02:19.574Z,64.36
2024-04-18T17:07:21.474Z,64.28
2024-04-18T17:12:43.387Z,65.97
2024-04-18T17:18:08.188Z,68.07
2024-04-18T17:23:09.922Z,68.39
2024-04-18T17:28:11.613Z,69.83
2024-04-18T17:33:33.266Z,71.78
2024-04-18T17:38:34.946Z,72.08
2024-04-18T17:43:56.557Z,73.62
2024-04-18T17:49:18.223Z,74.19
2024-04-18T17:54:19.936Z,72.87
2024-04-18T17:59:21.756Z,72.49
2024-04-18T18:04:23.482Z,72.50
2024-04-18T18:09:25.269Z,72.43
2024-04-18T18:14:26.907Z,73.44
2024-04-18T18:19:34.555Z,74.02
2024-04-18T18:24:36.409Z,75.36
2024-04-18T18:29:38.074Z,76.24
2024-04-18T18:34:43.033Z,77.68
2024-04-18T18:39:44.840Z,77.68
2024-04-18T18:44:46.497Z,78.40
2024-04-18T18:49:48.139Z,79.66
2024-04-18T18:54:49.836Z,79.29
2024-04-18T18:59:51.533Z,80.22
2024-04-18T19:04:53.222Z,81.14
2024-04-18T19:09:54.821Z,81.89
2024-04-18T19:14:56.449Z,83.06
2024-04-18T19:19:58.099Z,84.96
2024-04-18T19:24:59.959Z,85.32
2024-04-18T19:30:01.628Z,84.33
2024-04-18T19:35:03.328Z,85.06
2024-04-18T19:40:05.125Z,86.07
2024-04-18T19:45:06.933Z,85.58
2024-04-18T19:50:08.700Z,84.71
2024-04-18T19:55:10.349Z,85.52
2024-04-18T20:00:12.228Z,85.74
2024-04-18T20:05:13.947Z,86.92
2024-04-18T20:10:15.653Z,86.63
2024-04-18T20:15:17.396Z,87.41
2024-04-18T20:20:19.125Z,87.21
2024-04-18T20:25:20.719Z,88.19
2024-04-18T20:30:22.359Z,90.87
2024-04-18T20:35:39.470Z,91.58
2024-04-18T20:40:41.311Z,92.26
2024-04-18T20:45:43.138Z,92.48
2024-04-18T20:50:44.875Z,92.53
2024-04-18T20:55:46.465Z,94.02
2024-04-18T21:06:45.454Z,96.57
2024-04-18T21:11:47.052Z,97.33
2024-04-18T21:16:48.651Z,99.36
2024-04-18T21:21:50.251Z,98.39
2024-04-18T21:26:51.861Z,98.72
2024-04-18T21:31:53.497Z,99.05
2024-04-18T21:36:55.118Z,99.98
2024-04-18T21:41:56.719Z,99.99
2024-04-18T21:46:58.318Z,100.00
2024-04-18T21:52:00.134Z,100.00
2024-04-18T21:57:01.690Z,100.00
2024-04-18T22:02:03.395Z,100.00
2024-04-18T22:07:04.998Z,100.00
2024-04-18T22:12:06.812Z,100.00
2024-04-18T22:17:08.457Z,100.00
2024-04-18T22:22:10.060Z,100.00
2024-04-18T22:27:12.195Z,100.00
2024-04-18T22:32:13.877Z,100.00
2024-04-18T22:37:15.501Z,100.00
2024-04-18T22:42:17.150Z,100.00
2024-04-18T22:47:18.817Z,100.00
2024-04-18T22:52:20.478Z,100.00
2024-04-18T22:57:23.843Z,100.00
2024-04-18T23:02:25.483Z,100.00
2024-04-18T23:07:27.103Z,100.00
2024-04-18T23:12:28.748Z,100.00
2024-04-18T23:17:30.489Z,100.00
2024-04-18T23:22:32.153Z,100.00
2024-04-18T23:27:55.439Z,100.00
2024-04-18T23:32:57.113Z,100.00
2024-04-18T23:37:58.737Z,100.00
2024-04-18T23:43:00.405Z,100.00
2024-04-18T23:48:02.103Z,100.00
2024-04-18T23:53:03.768Z,100.00
2024-04-18T23:58:05.395Z,100.00
